Terminal Aerodrome Forecast
Issued by NWS Cleveland, OH

Home | Current Version | Previous Version | Text Only | Print | Product List | Glossary Off
Versions: 1 2 3 4 5 6 7 8 9 10 11 12 13 14 15 16 17 18

173
FTUS41 KCLE 260526
TAFYNG
TAF
KYNG 260526Z 2606/2706 18006KT P6SM SCT080 BKN250
     FM261600 18010KT P6SM VCSH SCT050 BKN080
     FM262200 20007KT P6SM BKN050=

USA.gov is the U.S. government's official web portal to all federal, state and local government web resources and services.